Terminal Aerodrome Forecast
Issued by NWS

Home | Current Version | Previous Version | Text Only | Print | Product List | Glossary On
Versions: 1 2 3 4 5 6 7 8 9 10 11 12 13
000
FTUS41 KAKQ 011100 RRA
TAFPHF
TAF
KPHF 011141Z 0112/0212 VRB03KT P6SM SCT100 BKN250
     FM011500 18009KT P6SM BKN100
     FM012200 16005KT P6SM OVC100
     FM020700 20012G22KT 5SM -RA BR BKN025 OVC040=

USA.gov is the U.S. government's official web portal to all federal, state and local government web resources and services.